Tennessee Colony, TX (75861)

1:50 PM CDT on July 05, 2015 (GMT -0500)
Hadley | | Change Station
CLOSE
Current Station
Personal Weather Station
Location: Tennessee Colony, TX
Elevation: 370 ft
Nearby Weather Stations
Active Advisory: Flood Warning

Elev 370 ft 31.83 °N, 95.85 °W | Updated 8 minutes ago

Mostly Cloudy
Mostly Cloudy
93.8 °F
Feels Like 104 °F
N
10.0
Wind Variable Wind from South

Today
High -- | Low -- °F
--% Chance of Precip.
Yesterday
High -- | Low -- °F
Precip. -- in
6:23 AM 8:33 PM
Waning Gibbous, 83% visible
Pressure 30.06 in
Visibility 10.0 miles
Clouds Scattered Clouds 4500 ft
Heat Index 104 °F
Dew Point 74 °F
Humidity 53%
Rainfall 0.00 in
Snow Depth Not available.
UV 10.1 out of 12
Pollen 4.40 out of 12
Air Quality Not available.
Flu Activity Not available.
METAR KPSN 051835Z AUTO 20010G15KT 10SM SCT045 33/21 A3006 RMK AO2 T03350212

More Conditions Fewer Conditions

Pressure 30.06 in
Visibility 10.0 miles
Clouds Scattered Clouds 4500 ft
Heat Index 104 °F
Dew Point 74 °F
Humidity 53%
Rainfall 0.00 in
Snow Depth Not available.
UV 10.1 out of 12
Pollen 4.40 out of 12
Air Quality Not available.
Flu Activity Not available.
METAR KPSN 051835Z AUTO 20010G15KT 10SM SCT045 33/21 A3006 RMK AO2 T03350212

More Conditions Fewer Conditions

10-Day Weather Forecast

×

Almanac

Astronomy

Jul. 05, 2015 Rise Set
Actual Time
Civil Twilight
Nautical Twilight
Astronomical Twilight
Moon
Length of Visible Light
Length of Day
Tomorrow will be .
, % of the Moon is Illuminated

Today's Extremes

State Highs State Lows

Community

WunderPhotos

Upload Photos

1,835,346 photos uploaded!

WunderBlogs® & News

Nearby

Air Quality

  Air Quality AQ Index Pollutant
Not available.

Snow Depth

Station Depth Elevation

Earthquake Activity

City Distance Mag. Time & Date
Minimum magnitude displayed is 2.5.

Coastal Water Temperatures

Place Temperature

Stations

Nearby Weather Stations

Station Location Temp. Windchill Dew Point Humidity Wind Precip. Elev Updated Type
                   
Flood Warning
Statement as of 9:48 AM CDT on July 05, 2015

The Flood Warning continues for
the Trinity River near Long Lake.
* At 0930 am Sunday the stage was 38.91 feet.
* Flood stage is 35 feet.
* Minor flooding is occurring and minor flooding is forecast.
* Forecast... the river has crested and will continue to recede and
fall below flood stage by Thursday night.


Lat... Lon 3170 9593 3150 9580 3149 9562 3173 9580